createdAt,value
2019-03-30T00:00:57.980Z,1022.50
2019-03-30T00:01:57.962Z,1022.51
2019-03-30T00:02:57.971Z,1022.48
2019-03-30T00:03:57.960Z,1022.46
2019-03-30T00:04:57.994Z,1022.43
2019-03-30T00:05:57.952Z,1022.46
2019-03-30T00:06:57.939Z,1022.42
2019-03-30T00:07:57.891Z,1022.44
2019-03-30T00:08:57.914Z,1022.41
2019-03-30T00:09:57.903Z,1022.42
2019-03-30T00:10:57.863Z,1022.39
2019-03-30T00:11:58.081Z,1022.40
2019-03-30T00:12:57.872Z,1022.38
2019-03-30T00:13:57.832Z,1022.36
2019-03-30T00:14:57.842Z,1022.37
2019-03-30T00:15:57.827Z,1022.32
2019-03-30T00:16:57.795Z,1022.32
2019-03-30T00:17:57.777Z,1022.30
2019-03-30T00:18:57.767Z,1022.26
2019-03-30T00:19:57.768Z,1022.26
2019-03-30T00:20:57.786Z,1022.25
2019-03-30T00:21:57.779Z,1022.24
2019-03-30T00:22:57.744Z,1022.23
2019-03-30T00:23:57.711Z,1022.23
2019-03-30T00:24:57.706Z,1022.21
2019-03-30T00:25:57.699Z,1022.16
2019-03-30T00:26:57.711Z,1022.18
2019-03-30T00:27:57.685Z,1022.14
2019-03-30T00:28:57.671Z,1022.17
2019-03-30T00:29:57.648Z,1022.14
2019-03-30T00:30:57.638Z,1022.11
2019-03-30T00:31:57.635Z,1022.12
2019-03-30T00:32:57.647Z,1022.16
2019-03-30T00:33:57.607Z,1022.15
2019-03-30T00:34:57.599Z,1022.13
2019-03-30T00:35:57.580Z,1022.14
2019-03-30T00:36:57.577Z,1022.12
2019-03-30T00:37:57.592Z,1022.10
2019-03-30T00:38:57.664Z,1022.08
2019-03-30T00:39:57.545Z,1022.08
2019-03-30T00:40:57.524Z,1022.06
2019-03-30T00:41:57.531Z,1022.03
2019-03-30T00:42:57.509Z,1022.01
2019-03-30T00:43:57.496Z,1022.04
2019-03-30T00:44:57.497Z,1021.99
2019-03-30T00:45:57.472Z,1021.99
2019-03-30T00:46:57.481Z,1021.95
2019-03-30T00:47:57.476Z,1022.02
2019-03-30T00:48:57.438Z,1021.97
2019-03-30T00:49:57.473Z,1021.95
2019-03-30T00:50:57.428Z,1021.92
2019-03-30T00:51:57.408Z,1021.94
2019-03-30T00:52:57.406Z,1021.94
2019-03-30T00:53:57.420Z,1021.89
2019-03-30T00:54:57.375Z,1021.91
2019-03-30T00:55:57.407Z,1021.89
2019-03-30T00:56:57.355Z,1021.87
2019-03-30T00:57:57.350Z,1021.89
2019-03-30T00:58:57.343Z,1021.87
2019-03-30T00:59:57.358Z,1021.87
2019-03-30T01:00:57.320Z,1021.86
2019-03-30T01:01:57.348Z,1021.90
2019-03-30T01:02:57.303Z,1021.91
2019-03-30T01:03:57.341Z,1021.88
2019-03-30T01:04:57.278Z,1021.84
2019-03-30T01:05:58.348Z,1021.89
2019-03-30T01:06:57.259Z,1021.88
2019-03-30T01:07:57.278Z,1021.85
2019-03-30T01:08:57.222Z,1021.86
2019-03-30T01:09:57.212Z,1021.90
2019-03-30T01:10:57.200Z,1021.84
2019-03-30T01:11:57.192Z,1021.84
2019-03-30T01:12:57.204Z,1021.78
2019-03-30T01:13:57.201Z,1021.78
2019-03-30T01:14:57.167Z,1021.75
2019-03-30T01:15:57.144Z,1021.72
2019-03-30T01:16:57.137Z,1021.72
2019-03-30T01:17:57.170Z,1021.76
2019-03-30T01:18:57.130Z,1021.73
2019-03-30T01:20:03.076Z,1021.74
2019-03-30T01:20:58.091Z,1021.76
2019-03-30T01:21:57.078Z,1021.71
2019-03-30T01:22:57.061Z,1021.73
2019-03-30T01:23:57.068Z,1021.68
2019-03-30T01:24:57.094Z,1021.69
2019-03-30T01:25:57.033Z,1021.73
2019-03-30T01:26:57.050Z,1021.70
2019-03-30T01:27:57.008Z,1021.67
2019-03-30T01:28:56.999Z,1021.69
2019-03-30T01:29:57.114Z,1021.68
2019-03-30T01:30:57.019Z,1021.67
2019-03-30T01:31:56.967Z,1021.65
2019-03-30T01:32:56.967Z,1021.65
2019-03-30T01:33:56.954Z,1021.69
2019-03-30T01:34:56.940Z,1021.65
2019-03-30T01:35:56.942Z,1021.64
2019-03-30T01:36:56.949Z,1021.65
2019-03-30T01:37:56.904Z,1021.67
2019-03-30T01:38:56.907Z,1021.66
2019-03-30T01:39:56.904Z,1021.64
2019-03-30T01:40:56.927Z,1021.63
2019-03-30T01:41:56.923Z,1021.55
2019-03-30T01:42:56.889Z,1021.63
2019-03-30T01:43:56.831Z,1021.63
2019-03-30T01:44:56.831Z,1021.64
2019-03-30T01:45:56.813Z,1021.60
2019-03-30T01:46:56.822Z,1021.61
2019-03-30T01:47:56.814Z,1021.60
2019-03-30T01:48:56.799Z,1021.57
2019-03-30T01:49:56.763Z,1021.57
2019-03-30T01:50:56.778Z,1021.56
2019-03-30T01:51:56.742Z,1021.59
2019-03-30T01:52:56.736Z,1021.54
2019-03-30T01:53:56.747Z,1021.55
2019-03-30T01:54:56.710Z,1021.58
2019-03-30T01:55:56.695Z,1021.54
2019-03-30T01:56:56.688Z,1021.57
2019-03-30T01:57:56.671Z,1021.56
2019-03-30T01:58:56.662Z,1021.51
2019-03-30T01:59:56.727Z,1021.54
2019-03-30T02:00:56.649Z,1021.55
2019-03-30T02:01:56.637Z,1021.49
2019-03-30T02:02:56.624Z,1021.52
2019-03-30T02:03:56.613Z,1021.54
2019-03-30T02:04:56.603Z,1021.52
2019-03-30T02:05:56.627Z,1021.54
2019-03-30T02:06:56.575Z,1021.54
2019-03-30T02:07:56.563Z,1021.52
2019-03-30T02:08:56.570Z,1021.55
2019-03-30T02:09:56.559Z,1021.50
2019-03-30T02:10:56.554Z,1021.47
2019-03-30T02:11:56.558Z,1021.48
2019-03-30T02:12:56.528Z,1021.49
2019-03-30T02:13:56.504Z,1021.42
2019-03-30T02:14:56.496Z,1021.41
2019-03-30T02:15:56.487Z,1021.39
2019-03-30T02:16:56.479Z,1021.42
2019-03-30T02:17:56.494Z,1021.40
2019-03-30T02:18:56.467Z,1021.35
2019-03-30T02:19:56.432Z,1021.35
2019-03-30T02:20:56.426Z,1021.35
2019-03-30T02:21:56.413Z,1021.36
2019-03-30T02:22:56.405Z,1021.31
2019-03-30T02:23:56.446Z,1021.33
2019-03-30T02:24:56.385Z,1021.32
2019-03-30T02:25:56.485Z,1021.28
2019-03-30T02:26:56.355Z,1021.29
2019-03-30T02:27:56.419Z,1021.27
2019-03-30T02:28:56.338Z,1021.23
2019-03-30T02:29:56.342Z,1021.19
2019-03-30T02:30:56.319Z,1021.22
2019-03-30T02:31:56.345Z,1021.17
2019-03-30T02:32:56.336Z,1021.19
2019-03-30T02:33:56.275Z,1021.17
2019-03-30T02:34:56.288Z,1021.19
2019-03-30T02:35:56.290Z,1021.14
2019-03-30T02:36:56.243Z,1021.10
2019-03-30T02:37:56.234Z,1021.11
2019-03-30T02:38:56.227Z,1021.09
2019-03-30T02:39:56.224Z,1021.07
2019-03-30T02:40:56.201Z,1021.05
2019-03-30T02:41:56.238Z,1021.10
2019-03-30T02:42:56.200Z,1021.08
2019-03-30T02:43:56.171Z,1021.10
2019-03-30T02:44:56.162Z,1021.08
2019-03-30T02:45:56.157Z,1021.11
2019-03-30T02:46:56.147Z,1021.10
2019-03-30T02:47:56.167Z,1021.12
2019-03-30T02:48:56.139Z,1021.09
2019-03-30T02:49:56.108Z,1021.13
2019-03-30T02:50:56.095Z,1021.09
2019-03-30T02:51:56.088Z,1021.12
2019-03-30T02:52:56.107Z,1021.12
2019-03-30T02:53:56.069Z,1021.08
2019-03-30T02:54:56.051Z,1021.11
2019-03-30T02:55:56.069Z,1021.05
2019-03-30T02:56:56.038Z,1021.06
2019-03-30T02:57:56.031Z,1021.06
2019-03-30T02:58:56.054Z,1021.02
2019-03-30T02:59:56.021Z,1021.00
2019-03-30T03:00:55.988Z,1021.00
2019-03-30T03:01:55.990Z,1021.00
2019-03-30T03:02:55.985Z,1021.00
2019-03-30T03:03:55.961Z,1021.02
2019-03-30T03:04:56.003Z,1020.98
2019-03-30T03:05:55.943Z,1021.00
2019-03-30T03:06:55.952Z,1020.97
2019-03-30T03:07:55.967Z,1020.96
2019-03-30T03:08:55.942Z,1020.94
2019-03-30T03:09:55.888Z,1020.91
2019-03-30T03:10:55.903Z,1020.88
2019-03-30T03:11:55.899Z,1020.89
2019-03-30T03:12:55.853Z,1020.89
2019-03-30T03:13:55.860Z,1020.85
2019-03-30T03:14:55.887Z,1020.85
2019-03-30T03:15:55.849Z,1020.84
2019-03-30T03:16:55.847Z,1020.87
2019-03-30T03:17:55.815Z,1020.87
2019-03-30T03:18:55.813Z,1020.88
2019-03-30T03:19:55.791Z,1020.83
2019-03-30T03:21:07.451Z,1020.86
2019-03-30T03:21:56.767Z,1020.86
2019-03-30T03:22:55.754Z,1020.84
2019-03-30T03:23:55.748Z,1020.83
2019-03-30T03:24:55.731Z,1020.85
2019-03-30T03:25:55.723Z,1020.81
2019-03-30T03:26:55.784Z,1020.81
2019-03-30T03:27:55.736Z,1020.80
2019-03-30T03:28:55.721Z,1020.78
2019-03-30T03:29:55.674Z,1020.74
2019-03-30T03:30:55.702Z,1020.71
2019-03-30T03:31:55.717Z,1020.71
2019-03-30T03:32:55.670Z,1020.73
2019-03-30T03:33:55.650Z,1020.70
2019-03-30T03:34:55.668Z,1020.68
2019-03-30T03:35:55.615Z,1020.66
2019-03-30T03:36:55.619Z,1020.62
2019-03-30T03:37:55.656Z,1020.63
2019-03-30T03:38:55.638Z,1020.64
2019-03-30T03:39:55.601Z,1020.61
2019-03-30T03:40:55.585Z,1020.64
2019-03-30T03:41:55.559Z,1020.61
2019-03-30T03:42:55.556Z,1020.62
2019-03-30T03:43:55.572Z,1020.63
2019-03-30T03:44:55.537Z,1020.62
2019-03-30T03:45:55.561Z,1020.62
2019-03-30T03:46:55.514Z,1020.59
2019-03-30T03:47:55.496Z,1020.61
2019-03-30T03:48:55.477Z,1020.57
2019-03-30T03:49:55.506Z,1020.58
2019-03-30T03:50:55.498Z,1020.55
2019-03-30T03:51:55.457Z,1020.59
2019-03-30T03:52:55.432Z,1020.56
2019-03-30T03:53:55.416Z,1020.55
2019-03-30T03:54:55.429Z,1020.47
2019-03-30T03:55:55.409Z,1020.52
2019-03-30T03:56:55.404Z,1020.43
2019-03-30T03:57:55.396Z,1020.48
2019-03-30T03:58:55.364Z,1020.46
2019-03-30T03:59:55.357Z,1020.44
2019-03-30T04:00:55.388Z,1020.46
2019-03-30T04:01:55.350Z,1020.44
2019-03-30T04:02:55.393Z,1020.47
2019-03-30T04:03:55.332Z,1020.45
2019-03-30T04:04:55.325Z,1020.46
2019-03-30T04:05:55.321Z,1020.46
2019-03-30T04:06:55.601Z,1020.50
2019-03-30T04:07:55.337Z,1020.43
2019-03-30T04:08:55.260Z,1020.43
2019-03-30T04:09:55.239Z,1020.42
2019-03-30T04:10:55.232Z,1020.40
2019-03-30T04:11:55.224Z,1020.36
2019-03-30T04:12:55.238Z,1020.34
2019-03-30T04:13:55.239Z,1020.36
2019-03-30T04:14:55.197Z,1020.32
2019-03-30T04:15:55.238Z,1020.27
2019-03-30T04:16:55.168Z,1020.23
2019-03-30T04:17:55.180Z,1020.19
2019-03-30T04:18:55.172Z,1020.18
2019-03-30T04:19:55.149Z,1020.13
2019-03-30T04:20:55.147Z,1020.21
2019-03-30T04:21:55.123Z,1020.16
2019-03-30T04:22:55.108Z,1020.13
2019-03-30T04:23:55.146Z,1020.18
2019-03-30T04:24:55.103Z,1020.15
2019-03-30T04:25:55.082Z,1020.14
2019-03-30T04:26:55.115Z,1020.14
2019-03-30T04:27:55.052Z,1020.09
2019-03-30T04:28:55.085Z,1020.12
2019-03-30T04:29:55.095Z,1020.12
2019-03-30T04:30:55.020Z,1020.08
2019-03-30T04:31:55.037Z,1020.05
2019-03-30T04:32:55.051Z,1020.06
2019-03-30T04:33:55.051Z,1020.02
2019-03-30T04:34:54.997Z,1020.04
2019-03-30T04:35:57.785Z,1020.01
2019-03-30T04:36:54.952Z,1019.98
2019-03-30T04:37:54.983Z,1019.97
2019-03-30T04:38:55.004Z,1019.88
2019-03-30T04:39:54.917Z,1019.89
2019-03-30T04:40:54.920Z,1019.90
2019-03-30T04:41:54.928Z,1019.90
2019-03-30T04:42:54.889Z,1019.86
2019-03-30T04:43:54.890Z,1019.85
2019-03-30T04:44:54.913Z,1019.89
2019-03-30T04:45:54.861Z,1019.86
2019-03-30T04:46:54.846Z,1019.87
2019-03-30T04:47:54.855Z,1019.85
2019-03-30T04:48:54.854Z,1019.87
2019-03-30T04:49:54.818Z,1019.80
2019-03-30T04:50:54.805Z,1019.77
2019-03-30T04:51:57.756Z,1019.81
2019-03-30T04:52:54.796Z,1019.80
2019-03-30T04:53:54.786Z,1019.74
2019-03-30T04:54:54.811Z,1019.76
2019-03-30T04:55:54.754Z,1019.79
2019-03-30T04:56:54.737Z,1019.73
2019-03-30T04:57:57.728Z,1019.81
2019-03-30T04:58:54.730Z,1019.78
2019-03-30T04:59:54.707Z,1019.77
2019-03-30T05:00:54.692Z,1019.78
2019-03-30T05:01:54.680Z,1019.78
2019-03-30T05:02:54.708Z,1019.75
2019-03-30T05:03:54.702Z,1019.76
2019-03-30T05:04:54.669Z,1019.75
2019-03-30T05:05:54.643Z,1019.73
2019-03-30T05:06:54.634Z,1019.74
2019-03-30T05:07:54.622Z,1019.71
2019-03-30T05:08:54.632Z,1019.72
2019-03-30T05:09:54.600Z,1019.69
2019-03-30T05:10:54.587Z,1019.69
2019-03-30T05:11:54.596Z,1019.71
2019-03-30T05:12:54.576Z,1019.71
2019-03-30T05:13:54.575Z,1019.70
2019-03-30T05:14:54.580Z,1019.68
2019-03-30T05:15:54.566Z,1019.65
2019-03-30T05:16:54.604Z,1019.67
2019-03-30T05:17:54.511Z,1019.69
2019-03-30T05:18:54.506Z,1019.72
2019-03-30T05:19:54.499Z,1019.72
2019-03-30T05:20:54.508Z,1019.70
2019-03-30T05:21:54.477Z,1019.67
2019-03-30T05:22:54.459Z,1019.71
2019-03-30T05:23:54.485Z,1019.65
2019-03-30T05:24:54.440Z,1019.63
2019-03-30T05:25:54.426Z,1019.67
2019-03-30T05:26:54.468Z,1019.67
2019-03-30T05:27:54.414Z,1019.62
2019-03-30T05:28:54.465Z,1019.67
2019-03-30T05:29:54.467Z,1019.65
2019-03-30T05:30:54.372Z,1019.66
2019-03-30T05:31:54.383Z,1019.64
2019-03-30T05:33:05.110Z,1019.66
2019-03-30T05:33:55.351Z,1019.63
2019-03-30T05:34:54.337Z,1019.68
2019-03-30T05:35:54.357Z,1019.69
2019-03-30T05:36:54.311Z,1019.60
2019-03-30T05:37:54.321Z,1019.59
2019-03-30T05:38:54.347Z,1019.56
2019-03-30T05:39:54.294Z,1019.57
2019-03-30T05:40:54.397Z,1019.59
2019-03-30T05:41:54.276Z,1019.62
2019-03-30T05:42:54.267Z,1019.67
2019-03-30T05:43:54.252Z,1019.63
2019-03-30T05:44:57.547Z,1019.55
2019-03-30T05:45:54.227Z,1019.60
2019-03-30T05:46:54.255Z,1019.54
2019-03-30T05:47:54.233Z,1019.59
2019-03-30T05:48:54.187Z,1019.62
2019-03-30T05:49:54.203Z,1019.59
2019-03-30T05:50:54.165Z,1019.65
2019-03-30T05:51:54.217Z,1019.66
2019-03-30T05:52:54.292Z,1019.62
2019-03-30T05:53:54.123Z,1019.65
2019-03-30T05:54:54.149Z,1019.60
2019-03-30T05:55:54.145Z,1019.62
2019-03-30T05:56:54.118Z,1019.59
2019-03-30T05:57:54.083Z,1019.63
2019-03-30T05:58:54.072Z,1019.59
2019-03-30T05:59:55.838Z,1019.60
2019-03-30T06:00:54.101Z,1019.62
2019-03-30T06:01:54.049Z,1019.65
2019-03-30T06:02:54.044Z,1019.67
2019-03-30T06:03:54.066Z,1019.65
2019-03-30T06:04:54.081Z,1019.67
2019-03-30T06:05:54.025Z,1019.65
2019-03-30T06:06:53.990Z,1019.63
2019-03-30T06:07:53.985Z,1019.63
2019-03-30T06:08:53.977Z,1019.62
2019-03-30T06:09:53.987Z,1019.64
2019-03-30T06:10:53.953Z,1019.59
2019-03-30T06:11:53.966Z,1019.60
2019-03-30T06:12:53.927Z,1019.60
2019-03-30T06:13:53.918Z,1019.63
2019-03-30T06:14:53.913Z,1019.54
2019-03-30T06:15:53.917Z,1019.56
2019-03-30T06:16:53.894Z,1019.53
2019-03-30T06:17:53.904Z,1019.53
2019-03-30T06:18:53.855Z,1019.53
2019-03-30T06:19:53.859Z,1019.57
2019-03-30T06:20:53.866Z,1019.58
2019-03-30T06:21:53.870Z,1019.54
2019-03-30T06:22:53.882Z,1019.52
2019-03-30T06:23:53.831Z,1019.55
2019-03-30T06:24:53.809Z,1019.52
2019-03-30T06:25:53.799Z,1019.50
2019-03-30T06:26:53.767Z,1019.51
2019-03-30T06:27:53.802Z,1019.50
2019-03-30T06:28:53.749Z,1019.49
2019-03-30T06:29:53.777Z,1019.44
2019-03-30T06:30:53.784Z,1019.45
2019-03-30T06:31:53.741Z,1019.43
2019-03-30T06:32:53.731Z,1019.44
2019-03-30T06:33:53.785Z,1019.48
2019-03-30T06:34:53.689Z,1019.44
2019-03-30T06:35:53.690Z,1019.46
2019-03-30T06:36:53.677Z,1019.46
2019-03-30T06:37:53.683Z,1019.46
2019-03-30T06:38:53.673Z,1019.46
2019-03-30T06:39:53.659Z,1019.45
2019-03-30T06:40:53.627Z,1019.51
2019-03-30T06:41:53.612Z,1019.49
2019-03-30T06:42:53.618Z,1019.45
2019-03-30T06:43:53.625Z,1019.42
2019-03-30T06:44:53.587Z,1019.48
2019-03-30T06:45:53.599Z,1019.43
2019-03-30T06:46:53.592Z,1019.45
2019-03-30T06:47:53.561Z,1019.45
2019-03-30T06:48:53.558Z,1019.50
2019-03-30T06:49:53.546Z,1019.50
2019-03-30T06:50:53.508Z,1019.50
2019-03-30T06:51:53.612Z,1019.51
2019-03-30T06:52:57.827Z,1019.49
2019-03-30T06:53:54.540Z,1019.52
2019-03-30T06:54:53.481Z,1019.52
2019-03-30T06:55:53.469Z,1019.51
2019-03-30T06:56:53.453Z,1019.52
2019-03-30T06:57:53.478Z,1019.48
2019-03-30T06:58:53.421Z,1019.46
2019-03-30T06:59:53.419Z,1019.52
2019-03-30T07:00:53.625Z,1019.52
2019-03-30T07:01:53.646Z,1019.56
2019-03-30T07:02:53.406Z,1019.59
2019-03-30T07:03:53.373Z,1019.55
2019-03-30T07:04:53.364Z,1019.55
2019-03-30T07:05:53.351Z,1019.54
2019-03-30T07:06:53.369Z,1019.57
2019-03-30T07:07:53.355Z,1019.55
2019-03-30T07:08:53.342Z,1019.55
2019-03-30T07:09:53.321Z,1019.53
2019-03-30T07:10:53.311Z,1019.53
2019-03-30T07:11:53.317Z,1019.50
2019-03-30T07:12:53.290Z,1019.52
2019-03-30T07:13:53.288Z,1019.52
2019-03-30T07:14:53.273Z,1019.49
2019-03-30T07:15:53.244Z,1019.52
2019-03-30T07:16:53.344Z,1019.48
2019-03-30T07:17:53.242Z,1019.47
2019-03-30T07:18:53.240Z,1019.51
2019-03-30T07:19:53.235Z,1019.49
2019-03-30T07:20:53.199Z,1019.50
2019-03-30T07:21:53.193Z,1019.43
2019-03-30T07:22:53.256Z,1019.45
2019-03-30T07:23:53.229Z,1019.41
2019-03-30T07:24:53.147Z,1019.44
2019-03-30T07:25:53.174Z,1019.43
2019-03-30T07:26:53.187Z,1019.42
2019-03-30T07:27:53.123Z,1019.41
2019-03-30T07:28:53.114Z,1019.41
2019-03-30T07:29:53.103Z,1019.41
2019-03-30T07:30:53.105Z,1019.36
2019-03-30T07:31:53.096Z,1019.41
2019-03-30T07:32:53.064Z,1019.39
2019-03-30T07:33:53.053Z,1019.39
2019-03-30T07:34:53.127Z,1019.41
2019-03-30T07:35:53.029Z,1019.36
2019-03-30T07:36:53.022Z,1019.34
2019-03-30T07:37:53.045Z,1019.32
2019-03-30T07:38:52.988Z,1019.29
2019-03-30T07:39:52.976Z,1019.32
2019-03-30T07:40:52.984Z,1019.29
2019-03-30T07:41:53.004Z,1019.28
2019-03-30T07:42:52.970Z,1019.33
2019-03-30T07:43:52.960Z,1019.32
2019-03-30T07:44:52.937Z,1019.27
2019-03-30T07:45:52.918Z,1019.31
2019-03-30T07:46:52.907Z,1019.28
2019-03-30T07:47:52.942Z,1019.24
2019-03-30T07:48:52.885Z,1019.27
2019-03-30T07:49:52.873Z,1019.29
2019-03-30T07:50:52.854Z,1019.30
2019-03-30T07:51:52.885Z,1019.25
2019-03-30T07:52:52.845Z,1019.21
2019-03-30T07:53:52.850Z,1019.23
2019-03-30T07:54:52.954Z,1019.20
2019-03-30T07:55:52.802Z,1019.21
2019-03-30T07:57:04.241Z,1019.25
2019-03-30T07:57:53.847Z,1019.21
2019-03-30T07:58:52.806Z,1019.22
2019-03-30T07:59:52.814Z,1019.24
2019-03-30T08:00:52.772Z,1019.26
2019-03-30T08:01:52.740Z,1019.23
2019-03-30T08:02:55.533Z,1019.20
2019-03-30T08:03:52.718Z,1019.17
2019-03-30T08:04:52.734Z,1019.13
2019-03-30T08:05:54.342Z,1019.16
2019-03-30T08:06:52.686Z,1019.14
2019-03-30T08:07:52.766Z,1019.13
2019-03-30T08:08:52.657Z,1019.09
2019-03-30T08:09:52.704Z,1019.13
2019-03-30T08:10:52.666Z,1019.13
2019-03-30T08:11:52.639Z,1019.11
2019-03-30T08:12:52.703Z,1019.10
2019-03-30T08:13:52.608Z,1019.08
2019-03-30T08:14:52.604Z,1019.10
2019-03-30T08:15:52.600Z,1019.07
2019-03-30T08:16:52.601Z,1019.03
2019-03-30T08:17:52.636Z,1019.05
2019-03-30T08:18:52.551Z,1019.00
2019-03-30T08:19:52.535Z,1019.01
2019-03-30T08:20:52.758Z,1018.99
2019-03-30T08:21:52.586Z,1018.96
2019-03-30T08:22:52.552Z,1018.98
2019-03-30T08:23:52.490Z,1019.00
2019-03-30T08:24:52.480Z,1018.99
2019-03-30T08:25:52.468Z,1018.97
2019-03-30T08:26:52.593Z,1018.98
2019-03-30T08:27:52.463Z,1018.99
2019-03-30T08:28:52.476Z,1018.98
2019-03-30T08:29:52.434Z,1018.95
2019-03-30T08:30:52.450Z,1018.90
2019-03-30T08:31:52.409Z,1018.88
2019-03-30T08:32:52.433Z,1018.89
2019-03-30T08:33:52.395Z,1018.86
2019-03-30T08:34:52.379Z,1018.81
2019-03-30T08:35:52.372Z,1018.83
2019-03-30T08:36:52.419Z,1018.82
2019-03-30T08:37:52.432Z,1018.78
2019-03-30T08:38:52.412Z,1018.83
2019-03-30T08:39:52.363Z,1018.85
2019-03-30T08:40:52.550Z,1018.82
2019-03-30T08:41:53.094Z,1018.81
2019-03-30T08:42:52.346Z,1018.76
2019-03-30T08:43:52.280Z,1018.79
2019-03-30T08:44:52.289Z,1018.73
2019-03-30T08:45:52.260Z,1018.77
2019-03-30T08:46:52.262Z,1018.71
2019-03-30T08:47:52.239Z,1018.73
2019-03-30T08:48:52.221Z,1018.71
2019-03-30T08:49:52.234Z,1018.67
2019-03-30T08:50:52.210Z,1018.67
2019-03-30T08:51:52.447Z,1018.66
2019-03-30T08:52:52.229Z,1018.68
2019-03-30T08:53:54.822Z,1018.62
2019-03-30T08:54:52.152Z,1018.61
2019-03-30T08:55:52.164Z,1018.65
2019-03-30T08:56:52.131Z,1018.57
2019-03-30T08:57:52.341Z,1018.55
2019-03-30T08:58:52.113Z,1018.55
2019-03-30T08:59:52.165Z,1018.55
2019-03-30T09:00:52.216Z,1018.53
2019-03-30T09:01:52.104Z,1018.54
2019-03-30T09:02:52.066Z,1018.54
2019-03-30T09:03:52.166Z,1018.55
2019-03-30T09:04:52.085Z,1018.52
2019-03-30T09:05:52.048Z,1018.50
2019-03-30T09:06:52.019Z,1018.51
2019-03-30T09:07:52.032Z,1018.46
2019-03-30T09:08:52.015Z,1018.47
2019-03-30T09:09:52.087Z,1018.40
2019-03-30T09:10:51.993Z,1018.38
2019-03-30T09:11:51.972Z,1018.34
2019-03-30T09:12:51.958Z,1018.44
2019-03-30T09:13:51.993Z,1018.39
2019-03-30T09:14:51.940Z,1018.52
2019-03-30T09:15:52.023Z,1018.40
2019-03-30T09:16:51.914Z,1018.39
2019-03-30T09:17:51.920Z,1018.36
2019-03-30T09:18:51.926Z,1018.37
2019-03-30T09:19:51.884Z,1018.35
2019-03-30T09:20:51.883Z,1018.32
2019-03-30T09:21:51.867Z,1018.32
2019-03-30T09:22:51.872Z,1018.31
2019-03-30T09:23:51.848Z,1018.34
2019-03-30T09:24:51.862Z,1018.32
2019-03-30T09:25:51.820Z,1018.32
2019-03-30T09:26:51.821Z,1018.32
2019-03-30T09:27:51.976Z,1018.39
2019-03-30T09:28:51.813Z,1018.34
2019-03-30T09:29:51.770Z,1018.42
2019-03-30T09:30:51.787Z,1018.37
2019-03-30T09:31:51.771Z,1018.32
2019-03-30T09:32:51.740Z,1018.34
2019-03-30T09:33:51.766Z,1018.28
2019-03-30T09:34:51.714Z,1018.30
2019-03-30T09:35:51.741Z,1018.25
2019-03-30T09:36:51.785Z,1018.32
2019-03-30T09:37:51.689Z,1018.32
2019-03-30T09:38:51.715Z,1018.27
2019-03-30T09:39:51.676Z,1018.30
2019-03-30T09:40:51.650Z,1018.30
2019-03-30T09:41:51.684Z,1018.24
2019-03-30T09:42:51.643Z,1018.34
2019-03-30T09:43:51.635Z,1018.37
2019-03-30T09:44:51.612Z,1018.28
2019-03-30T09:45:51.616Z,1018.25
2019-03-30T09:46:51.588Z,1018.33
2019-03-30T09:47:51.600Z,1018.20
2019-03-30T09:48:51.583Z,1018.19
2019-03-30T09:49:51.593Z,1018.20
2019-03-30T09:50:51.546Z,1018.22
2019-03-30T09:51:51.543Z,1018.18
2019-03-30T09:52:51.559Z,1018.11
2019-03-30T09:53:51.541Z,1018.26
2019-03-30T09:54:51.516Z,1018.12
2019-03-30T09:55:51.507Z,1018.13
2019-03-30T09:56:51.525Z,1018.11
2019-03-30T09:57:51.473Z,1018.13
2019-03-30T09:58:51.477Z,1018.13
2019-03-30T09:59:51.519Z,1018.18
2019-03-30T10:00:51.449Z,1018.11
2019-03-30T10:01:51.438Z,1018.13
2019-03-30T10:02:51.418Z,1018.03
2019-03-30T10:03:51.405Z,1018.04
2019-03-30T10:04:51.413Z,1018.01
2019-03-30T10:05:51.404Z,1018.13
2019-03-30T10:06:51.392Z,1018.08
2019-03-30T10:07:51.364Z,1018.08
2019-03-30T10:08:51.354Z,1018.05
2019-03-30T10:09:51.341Z,1018.02
2019-03-30T10:10:51.327Z,1018.07
2019-03-30T10:11:51.357Z,1018.00
2019-03-30T10:12:51.335Z,1018.10
2019-03-30T10:13:51.310Z,1017.99
2019-03-30T10:14:51.281Z,1018.09
2019-03-30T10:15:51.297Z,1018.06
2019-03-30T10:16:51.333Z,1017.99
2019-03-30T10:17:51.274Z,1017.94
2019-03-30T10:18:51.241Z,1017.90
2019-03-30T10:20:03.633Z,1017.92
2019-03-30T10:20:52.226Z,1017.85
2019-03-30T10:21:51.212Z,1017.84
2019-03-30T10:22:51.221Z,1017.89
2019-03-30T10:23:51.230Z,1017.83
2019-03-30T10:24:51.199Z,1017.79
2019-03-30T10:25:51.224Z,1017.82
2019-03-30T10:26:51.163Z,1017.91
2019-03-30T10:27:51.146Z,1017.84
2019-03-30T10:28:51.153Z,1017.80
2019-03-30T10:29:51.150Z,1017.83
2019-03-30T10:30:51.109Z,1017.86
2019-03-30T10:31:51.096Z,1017.82
2019-03-30T10:32:51.090Z,1017.77
2019-03-30T10:33:51.085Z,1017.75
2019-03-30T10:34:51.063Z,1017.86
2019-03-30T10:35:51.089Z,1017.78
2019-03-30T10:36:51.058Z,1017.77
2019-03-30T10:37:51.036Z,1017.82
2019-03-30T10:38:51.059Z,1017.77
2019-03-30T10:39:51.016Z,1017.84
2019-03-30T10:40:51.030Z,1017.89
2019-03-30T10:41:51.010Z,1017.84
2019-03-30T10:42:50.982Z,1017.76
2019-03-30T10:43:50.975Z,1017.83
2019-03-30T10:44:50.960Z,1017.78
2019-03-30T10:45:50.970Z,1017.70
2019-03-30T10:46:50.944Z,1017.66
2019-03-30T10:47:50.945Z,1017.63
2019-03-30T10:48:50.914Z,1017.60
2019-03-30T10:49:50.912Z,1017.58
2019-03-30T10:50:50.896Z,1017.60
2019-03-30T10:51:54.194Z,1017.67
2019-03-30T10:52:50.915Z,1017.58
2019-03-30T10:53:50.866Z,1017.56
2019-03-30T10:54:52.919Z,1017.56
2019-03-30T10:55:50.857Z,1017.55
2019-03-30T10:56:50.851Z,1017.50
2019-03-30T10:57:50.837Z,1017.47
2019-03-30T10:58:50.840Z,1017.48
2019-03-30T10:59:50.802Z,1017.49
2019-03-30T11:00:50.799Z,1017.47
2019-03-30T11:01:51.566Z,1017.53
2019-03-30T11:02:50.765Z,1017.50
2019-03-30T11:03:51.093Z,1017.48
2019-03-30T11:04:50.743Z,1017.47
2019-03-30T11:05:50.725Z,1017.42
2019-03-30T11:06:50.726Z,1017.41
2019-03-30T11:07:50.713Z,1017.41
2019-03-30T11:08:50.700Z,1017.47
2019-03-30T11:09:50.750Z,1017.48
2019-03-30T11:10:50.673Z,1017.43
2019-03-30T11:11:50.672Z,1017.43
2019-03-30T11:12:50.668Z,1017.43
2019-03-30T11:13:50.658Z,1017.42
2019-03-30T11:14:50.635Z,1017.49
2019-03-30T11:15:50.684Z,1017.40
2019-03-30T11:16:50.637Z,1017.39
2019-03-30T11:17:50.614Z,1017.41
2019-03-30T11:18:50.584Z,1017.38
2019-03-30T11:19:50.598Z,1017.36
2019-03-30T11:20:50.574Z,1017.31
2019-03-30T11:21:50.610Z,1017.34
2019-03-30T11:22:50.558Z,1017.31
2019-03-30T11:23:50.580Z,1017.29
2019-03-30T11:24:50.526Z,1017.26
2019-03-30T11:25:50.708Z,1017.31
2019-03-30T11:26:50.506Z,1017.33
2019-03-30T11:27:50.508Z,1017.34
2019-03-30T11:28:50.497Z,1017.32
2019-03-30T11:29:50.501Z,1017.28
2019-03-30T11:30:50.476Z,1017.23
2019-03-30T11:31:50.499Z,1017.23
2019-03-30T11:32:50.446Z,1017.18
2019-03-30T11:33:50.434Z,1017.11
2019-03-30T11:34:50.412Z,1017.04
2019-03-30T11:35:50.431Z,1017.15
2019-03-30T11:36:50.470Z,1017.10
2019-03-30T11:37:50.461Z,1017.13
2019-03-30T11:38:50.372Z,1017.07
2019-03-30T11:39:50.452Z,1017.03
2019-03-30T11:40:50.390Z,1017.06
2019-03-30T11:41:50.334Z,1017.04
2019-03-30T11:42:50.331Z,1017.03
2019-03-30T11:43:50.382Z,1017.04
2019-03-30T11:44:50.313Z,1017.03
2019-03-30T11:45:50.294Z,1017.01
2019-03-30T11:46:50.316Z,1017.13
2019-03-30T11:47:50.274Z,1016.92
2019-03-30T11:48:50.272Z,1016.91
2019-03-30T11:49:50.344Z,1016.77
2019-03-30T11:50:50.249Z,1016.89
2019-03-30T11:51:50.231Z,1016.87
2019-03-30T11:52:50.209Z,1016.94
2019-03-30T11:53:50.212Z,1016.97
2019-03-30T11:54:50.222Z,1016.81
2019-03-30T11:55:50.242Z,1016.97
2019-03-30T11:56:50.183Z,1016.80
2019-03-30T11:57:50.192Z,1016.72
2019-03-30T11:58:50.150Z,1016.75
2019-03-30T11:59:50.142Z,1016.67
2019-03-30T12:00:50.147Z,1016.84
2019-03-30T12:01:50.114Z,1016.73
2019-03-30T12:02:50.120Z,1016.69
2019-03-30T12:03:50.118Z,1016.71
2019-03-30T12:04:50.087Z,1016.75
2019-03-30T12:05:50.147Z,1016.71